Time;durP1;ratioP1;P1;durP2;ratioP2;P2;SDS_P1;SDS_P2;PMS_P1;PMS_P2;Temp;Humidity;BMP_temperature;BMP_pressure;BME280_temperature;BME280_humidity;BME280_pressure;Samples;Min_cycle;Max_cycle;Signal;HPM_P1;HPM_P2
2022/09/11 00:01:21;;;;;;;23.65;22.40;;;20.40;75.10;;;;;;5036143;28;20029;-81
2022/09/11 00:03:48;;;;;;;21.08;19.77;;;20.30;76.30;;;;;;5035904;28;20066;-81
2022/09/11 00:06:16;;;;;;;24.88;23.48;;;20.10;76.70;;;;;;5019211;28;20037;-81
2022/09/11 00:08:42;;;;;;;21.23;19.92;;;20.10;77.00;;;;;;5036130;28;20028;-81
2022/09/11 00:11:10;;;;;;;21.75;20.50;;;20.10;75.90;;;;;;5035858;28;20587;-81
2022/09/11 00:13:37;;;;;;;21.58;20.27;;;20.10;75.60;;;;;;5036318;28;20033;-80
2022/09/11 00:16:06;;;;;;;21.55;20.42;;;20.20;75.40;;;;;;5035720;28;20028;-81
2022/09/11 00:18:34;;;;;;;21.23;20.02;;;20.20;75.40;;;;;;5053295;28;20441;-81
2022/09/11 00:21:01;;;;;;;22.33;21.02;;;20.20;75.00;;;;;;5035951;28;20048;-80
2022/09/11 00:23:27;;;;;;;21.45;20.17;;;20.10;75.00;;;;;;5034781;28;20053;-79
2022/09/11 00:25:53;;;;;;;23.80;22.30;;;20.10;75.00;;;;;;5035668;28;20032;-81
2022/09/11 00:28:23;;;;;;;22.23;21.02;;;20.10;75.00;;;;;;5035909;28;20036;-81
2022/09/11 00:31:15;;;;;;;21.67;20.57;;;20.10;74.90;;;;;;5034655;28;20473;-80
2022/09/11 00:33:41;;;;;;;24.05;22.75;;;20.00;75.00;;;;;;5035170;28;20037;-80
2022/09/11 00:36:11;;;;;;;23.52;22.17;;;20.00;75.40;;;;;;5051962;28;20037;-81
2022/09/11 00:38:38;;;;;;;25.90;24.13;;;19.90;75.30;;;;;;5052099;28;20059;-80
2022/09/11 00:41:07;;;;;;;26.27;24.75;;;19.90;75.50;;;;;;5052065;28;20043;-80
2022/09/11 00:43:56;;;;;;;25.65;24.05;;;19.90;75.60;;;;;;5051907;28;20047;-80
2022/09/11 00:46:25;;;;;;;23.00;21.80;;;19.80;75.50;;;;;;5051444;28;20028;-80
2022/09/11 00:48:51;;;;;;;23.70;22.10;;;19.80;75.50;;;;;;5035639;28;20517;-80
2022/09/11 00:51:21;;;;;;;23.83;22.52;;;19.90;75.50;;;;;;5035363;28;20056;-80
2022/09/11 00:53:48;;;;;;;24.58;23.23;;;19.90;76.10;;;;;;5052606;28;20437;-80
2022/09/11 00:56:14;;;;;;;25.92;24.42;;;19.90;75.30;;;;;;5070095;28;20055;-81
2022/09/11 00:58:41;;;;;;;27.77;26.30;;;19.90;75.30;;;;;;5052185;28;20030;-80
2022/09/11 01:01:07;;;;;;;26.40;24.98;;;19.80;75.40;;;;;;5037229;28;20409;-81
2022/09/11 01:03:33;;;;;;;31.52;29.80;;;19.80;75.50;;;;;;5073374;28;20044;-80
2022/09/11 01:06:00;;;;;;;34.50;32.70;;;19.80;75.70;;;;;;5055545;28;20102;-80
2022/09/11 01:08:26;;;;;;;26.73;25.33;;;19.70;76.60;;;;;;5055101;28;20036;-80
2022/09/11 01:10:52;;;;;;;26.73;25.15;;;19.60;77.30;;;;;;5038998;28;20028;-80
2022/09/11 01:13:26;;;;;;;27.90;26.42;;;19.60;77.10;;;;;;5074064;28;20020;-80
2022/09/11 01:16:42;;;;;;;27.77;26.35;;;19.60;76.80;;;;;;5055119;28;20107;-80
2022/09/11 01:19:36;;;;;;;27.08;25.63;;;19.50;77.00;;;;;;5010926;28;20494;-80
2022/09/11 01:22:16;;;;;;;26.77;25.25;;;19.50;77.20;;;;;;5009878;28;20040;-81
2022/09/11 01:24:55;;;;;;;27.10;25.52;;;19.50;77.00;;;;;;5010772;28;20057;-80
2022/09/11 01:27:36;;;;;;;24.85;23.40;;;19.50;76.60;;;;;;5010538;28;20026;-80
2022/09/11 01:30:07;;;;;;;29.40;27.90;;;19.40;76.70;;;;;;5010491;28;20069;-79
2022/09/11 01:32:58;;;;;;;26.08;24.67;;;19.40;77.40;;;;;;4994939;28;20026;-80
2022/09/11 01:35:33;;;;;;;24.17;22.52;;;19.40;76.90;;;;;;5010964;28;20498;-80
2022/09/11 01:38:21;;;;;;;23.42;21.80;;;19.40;76.90;;;;;;4978355;28;20041;-80
2022/09/11 01:40:53;;;;;;;22.35;21.20;;;19.40;76.70;;;;;;5000056;28;20050;-80
2022/09/11 01:43:25;;;;;;;24.65;23.30;;;19.30;77.40;;;;;;5010616;28;20049;-80
2022/09/11 01:45:51;;;;;;;23.25;21.85;;;19.00;78.50;;;;;;4974644;28;20030;-80
2022/09/11 01:48:21;;;;;;;22.95;21.75;;;18.80;79.70;;;;;;5022875;28;20415;-80
2022/09/11 01:50:48;;;;;;;21.83;20.58;;;18.80;79.30;;;;;;5050490;28;20151;-80
2022/09/11 01:53:15;;;;;;;21.50;20.23;;;18.90;78.50;;;;;;5021565;28;20401;-80
2022/09/11 01:55:43;;;;;;;24.02;22.70;;;19.00;77.90;;;;;;5038128;28;20033;-81
2022/09/11 01:58:14;;;;;;;26.75;25.35;;;19.00;77.40;;;;;;5038275;28;20029;-80
2022/09/11 02:00:41;;;;;;;;;;;19.00;77.60;;;;;;5038733;28;20020;-80
2022/09/11 02:03:21;;;;;;;19.42;18.33;;;19.00;77.10;;;;;;5037540;28;19908;-81
2022/09/11 02:06:04;;;;;;;21.10;19.90;;;18.90;77.00;;;;;;5039011;28;20036;-82
2022/09/11 02:08:42;;;;;;;22.63;21.20;;;18.90;77.50;;;;;;5038372;28;20032;-81
2022/09/11 02:11:11;;;;;;;23.30;21.95;;;18.90;77.20;;;;;;5055415;28;20028;-81
2022/09/11 02:13:43;;;;;;;21.05;19.88;;;18.90;77.00;;;;;;5037686;28;20033;-82
2022/09/11 02:16:38;;;;;;;21.88;20.45;;;18.70;77.30;;;;;;5053447;28;20028;-81
2022/09/11 02:19:06;;;;;;;22.25;20.85;;;18.60;77.80;;;;;;5022065;28;20500;-81
2022/09/11 02:21:32;;;;;;;22.83;21.30;;;18.50;77.80;;;;;;5037260;28;20035;-81
2022/09/11 02:23:59;;;;;;;22.83;21.02;;;18.60;77.30;;;;;;5037457;28;20029;-81
2022/09/11 02:26:26;;;;;;;22.65;21.30;;;18.50;77.20;;;;;;5037632;28;20047;-82
2022/09/11 02:28:52;;;;;;;22.50;20.92;;;18.40;77.70;;;;;;5037271;28;20040;-81
2022/09/11 02:31:19;;;;;;;22.20;20.90;;;18.50;77.00;;;;;;5036785;28;20036;-81
2022/09/11 02:33:45;;;;;;;21.35;20.02;;;18.50;76.30;;;;;;5053797;28;20048;-82
2022/09/11 02:36:21;;;;;;;22.70;21.50;;;18.50;76.50;;;;;;5053681;28;20021;-81
2022/09/11 02:38:57;;;;;;;20.90;19.70;;;18.50;76.50;;;;;;5071465;28;20389;-81
2022/09/11 02:41:27;;;;;;;21.48;20.17;;;18.50;76.30;;;;;;5071454;28;20047;-81
2022/09/11 02:43:59;;;;;;;21.48;20.33;;;18.50;75.90;;;;;;5053369;28;20048;-81
2022/09/11 02:46:37;;;;;;;22.35;20.80;;;18.50;75.50;;;;;;5071087;28;20384;-81
2022/09/11 02:49:08;;;;;;;22.63;20.92;;;18.50;75.90;;;;;;5036510;28;20049;-81
2022/09/11 02:51:43;;;;;;;20.52;19.35;;;18.50;75.50;;;;;;5036823;28;20036;-82
2022/09/11 02:54:41;;;;;;;19.85;18.65;;;18.30;75.40;;;;;;5037542;28;20036;-81
2022/09/11 02:57:32;;;;;;;19.73;18.52;;;18.20;75.90;;;;;;5037113;28;20035;-81
2022/09/11 03:00:02;;;;;;;19.90;18.80;;;18.30;75.60;;;;;;5039405;28;20461;-81
2022/09/11 03:02:32;;;;;;;21.27;20.08;;;18.30;75.40;;;;;;5053178;28;20036;-81
2022/09/11 03:04:58;;;;;;;21.98;20.58;;;18.30;75.10;;;;;;5020340;28;20045;-81
2022/09/11 03:07:25;;;;;;;20.27;18.98;;;18.30;75.50;;;;;;5053595;28;20389;-81
2022/09/11 03:09:51;;;;;;;19.15;18.10;;;18.30;75.10;;;;;;5036950;28;20682;-81
2022/09/11 03:12:17;;;;;;;19.88;18.80;;;18.30;74.70;;;;;;5053234;28;20040;-81
2022/09/11 03:14:43;;;;;;;19.02;17.83;;;18.40;74.90;;;;;;5020352;28;20041;-81
2022/09/11 03:17:10;;;;;;;19.65;18.35;;;18.30;74.90;;;;;;5052728;28;20037;-81
2022/09/11 03:19:36;;;;;;;19.45;18.20;;;18.20;74.60;;;;;;5036320;28;20028;-82
2022/09/11 03:22:02;;;;;;;18.17;17.00;;;18.20;74.70;;;;;;5053000;28;20039;-81
2022/09/11 03:24:28;;;;;;;18.98;17.85;;;18.10;75.00;;;;;;5052310;28;20047;-81
2022/09/11 03:26:54;;;;;;;18.85;17.60;;;17.90;75.20;;;;;;5070793;28;20024;-81
2022/09/11 03:29:20;;;;;;;18.70;17.50;;;17.80;75.30;;;;;;5052936;28;20025;-81
2022/09/11 03:31:47;;;;;;;19.15;17.92;;;17.70;75.60;;;;;;5070691;28;20523;-81
2022/09/11 03:34:13;;;;;;;20.77;19.58;;;17.70;75.70;;;;;;5052542;28;20035;-81
2022/09/11 03:36:39;;;;;;;19.00;17.80;;;17.70;75.90;;;;;;5053014;28;20027;-81
2022/09/11 03:39:05;;;;;;;17.80;16.70;;;17.70;75.80;;;;;;5052946;28;20032;-81
2022/09/11 03:41:31;;;;;;;17.98;17.02;;;17.60;76.00;;;;;;5070419;28;20029;-81
2022/09/11 03:43:58;;;;;;;17.50;16.25;;;17.60;76.00;;;;;;5070688;28;20032;-81
2022/09/11 03:46:24;;;;;;;18.15;17.05;;;17.30;76.90;;;;;;5070229;28;20389;-81
2022/09/11 03:48:51;;;;;;;18.45;17.42;;;17.40;76.60;;;;;;5052385;28;20056;-81
2022/09/11 03:51:17;;;;;;;17.92;16.77;;;17.50;75.90;;;;;;5070470;28;20035;-81
2022/09/11 03:53:43;;;;;;;18.35;17.15;;;17.50;75.90;;;;;;5070585;28;20381;-81
2022/09/11 03:56:10;;;;;;;18.67;17.25;;;17.30;76.50;;;;;;5052351;28;20033;-81
2022/09/11 03:58:36;;;;;;;19.60;18.20;;;17.30;76.60;;;;;;5070685;28;20032;-81
2022/09/11 04:01:13;;;;;;;19.42;18.33;;;17.30;76.20;;;;;;5069573;28;20055;-80
2022/09/11 04:03:40;;;;;;;20.38;19.25;;;17.40;76.20;;;;;;5036042;28;20020;-80
2022/09/11 04:06:06;;;;;;;20.33;19.13;;;17.30;75.90;;;;;;5052545;28;20393;-80
2022/09/11 04:08:33;;;;;;;20.00;18.60;;;17.40;75.90;;;;;;5035985;28;20056;-81
2022/09/11 04:11:00;;;;;;;20.30;18.75;;;17.40;75.70;;;;;;5052400;28;20406;-81
2022/09/11 04:13:27;;;;;;;20.25;18.85;;;17.40;75.70;;;;;;5070484;28;20040;-80
2022/09/11 04:16:01;;;;;;;21.30;19.98;;;17.40;75.70;;;;;;5051919;28;20048;-81
2022/09/11 04:18:29;;;;;;;19.60;18.20;;;17.30;75.60;;;;;;5036814;28;20047;-81
2022/09/11 04:20:55;;;;;;;21.85;20.52;;;17.40;75.50;;;;;;5036057;28;20032;-81
2022/09/11 04:23:21;;;;;;;19.52;18.42;;;17.40;75.40;;;;;;5052457;28;20032;-80
2022/09/11 04:25:47;;;;;;;20.25;19.05;;;17.50;75.20;;;;;;5070204;28;20056;-81
2022/09/11 04:28:13;;;;;;;20.10;19.00;;;17.40;75.40;;;;;;5032129;28;20044;-80
2022/09/11 04:30:41;;;;;;;19.92;18.65;;;17.30;75.60;;;;;;5031615;28;20410;-81
2022/09/11 04:33:07;;;;;;;20.52;19.35;;;17.20;76.00;;;;;;5032679;28;20028;-81
2022/09/11 04:35:38;;;;;;;20.55;19.13;;;17.10;76.70;;;;;;5051500;28;20389;-81
2022/09/11 04:38:04;;;;;;;19.98;18.77;;;17.10;76.30;;;;;;5036366;28;20032;-81
2022/09/11 04:40:31;;;;;;;19.85;18.55;;;17.10;76.60;;;;;;5060580;28;20040;-81
2022/09/11 04:42:58;;;;;;;22.02;20.38;;;17.10;76.30;;;;;;5073787;28;20024;-81
2022/09/11 04:45:24;;;;;;;22.40;21.10;;;17.20;75.90;;;;;;5072912;28;20033;-80
2022/09/11 04:47:51;;;;;;;21.55;20.10;;;17.30;75.60;;;;;;5073745;28;20024;-81
2022/09/11 04:50:18;;;;;;;21.83;20.48;;;17.20;75.40;;;;;;5073855;28;20064;-81
2022/09/11 04:52:44;;;;;;;21.52;20.10;;;17.30;75.30;;;;;;5055833;28;20035;-81
2022/09/11 04:55:10;;;;;;;21.30;20.10;;;17.30;75.20;;;;;;5055753;28;20096;-81
2022/09/11 04:57:37;;;;;;;21.92;20.52;;;17.30;75.20;;;;;;5073604;28;20029;-81
2022/09/11 05:00:04;;;;;;;21.30;19.70;;;17.30;75.30;;;;;;5054812;28;20036;-79
2022/09/11 05:02:30;;;;;;;19.58;18.38;;;17.40;75.60;;;;;;5039638;28;20099;-81
2022/09/11 05:04:57;;;;;;;19.17;18.08;;;17.20;76.00;;;;;;5039005;28;20505;-81
2022/09/11 05:07:24;;;;;;;19.30;18.13;;;17.20;75.70;;;;;;5039272;28;20035;-81
2022/09/11 05:09:53;;;;;;;19.67;18.48;;;17.00;76.60;;;;;;5073522;28;20028;-81
2022/09/11 05:12:20;;;;;;;20.98;19.70;;;16.90;76.70;;;;;;5039734;28;20389;-81
2022/09/11 05:14:46;;;;;;;21.42;19.98;;;16.90;76.60;;;;;;5052798;28;20485;-81
2022/09/11 05:17:12;;;;;;;21.08;19.77;;;16.90;76.80;;;;;;5054963;28;20052;-81
2022/09/11 05:19:39;;;;;;;20.52;19.23;;;17.00;76.40;;;;;;5039069;28;20393;-81
2022/09/11 05:22:08;;;;;;;19.35;18.15;;;17.00;76.00;;;;;;5038858;28;20051;-81
2022/09/11 05:24:34;;;;;;;20.42;19.13;;;17.00;76.20;;;;;;5055160;28;20036;-81
2022/09/11 05:27:00;;;;;;;20.48;19.20;;;17.10;76.20;;;;;;5071705;28;20489;-81
2022/09/11 05:29:29;;;;;;;20.38;19.10;;;17.10;76.60;;;;;;5034492;28;20045;-81
2022/09/11 05:31:57;;;;;;;20.88;19.67;;;17.00;76.70;;;;;;5018383;28;20029;-81
2022/09/11 05:34:27;;;;;;;20.40;19.30;;;17.00;76.40;;;;;;5002668;28;20112;-81
2022/09/11 05:36:56;;;;;;;19.83;18.63;;;17.10;76.00;;;;;;5052956;28;20041;-81
2022/09/11 05:39:23;;;;;;;18.55;17.42;;;17.10;75.80;;;;;;5002711;28;20474;-80
2022/09/11 05:41:50;;;;;;;18.38;17.30;;;17.10;75.80;;;;;;5014677;28;20434;-81
2022/09/11 05:44:17;;;;;;;17.95;16.63;;;17.10;75.80;;;;;;5040056;28;20386;-81
2022/09/11 05:46:43;;;;;;;19.52;18.13;;;17.10;75.80;;;;;;5000629;28;20033;-81
2022/09/11 05:49:09;;;;;;;17.52;16.42;;;17.10;75.70;;;;;;5062769;28;20048;-81
2022/09/11 05:51:36;;;;;;;19.05;17.70;;;17.00;76.20;;;;;;5038392;28;20039;-81
2022/09/11 05:54:03;;;;;;;19.52;18.33;;;17.00;77.10;;;;;;5054901;28;20084;-81
2022/09/11 05:56:29;;;;;;;16.65;15.45;;;16.80;77.30;;;;;;5038196;28;20385;-81
2022/09/11 05:58:56;;;;;;;16.67;15.35;;;16.80;77.40;;;;;;5072179;28;20475;-81
2022/09/11 06:01:24;;;;;;;16.15;15.05;;;16.80;77.20;;;;;;5037519;28;20047;-80
2022/09/11 06:03:51;;;;;;;16.67;15.52;;;16.70;78.00;;;;;;5021127;28;20412;-81
2022/09/11 06:06:18;;;;;;;16.42;15.07;;;16.60;78.60;;;;;;5054432;28;20064;-81
2022/09/11 06:08:44;;;;;;;15.40;14.40;;;16.50;78.90;;;;;;5038024;28;20047;-80
2022/09/11 06:11:12;;;;;;;15.57;14.60;;;16.60;78.60;;;;;;5054597;28;20051;-81
2022/09/11 06:13:39;;;;;;;15.05;14.07;;;16.60;78.50;;;;;;5037654;28;20381;-81
2022/09/11 06:16:12;;;;;;;15.45;14.45;;;16.50;79.00;;;;;;5037148;28;20048;-80
2022/09/11 06:18:38;;;;;;;15.77;14.68;;;16.30;80.40;;;;;;5054382;28;20043;-80
2022/09/11 06:21:06;;;;;;;15.02;13.93;;;16.30;80.60;;;;;;5054265;28;20051;-81
2022/09/11 06:23:33;;;;;;;16.25;15.15;;;16.30;80.70;;;;;;5071962;28;20024;-81
2022/09/11 06:26:10;;;;;;;16.48;15.32;;;16.40;80.30;;;;;;5037325;28;20044;-80
2022/09/11 06:28:37;;;;;;;17.98;16.73;;;16.40;80.10;;;;;;5023243;28;20040;-81
2022/09/11 06:31:09;;;;;;;16.27;15.13;;;16.50;80.30;;;;;;5015212;28;20033;-80
2022/09/11 06:33:36;;;;;;;15.20;14.20;;;16.60;80.30;;;;;;5018366;28;20518;-81
2022/09/11 06:36:04;;;;;;;18.00;16.52;;;16.60;80.40;;;;;;5052060;28;20032;-81
2022/09/11 06:38:30;;;;;;;18.10;16.80;;;16.60;80.30;;;;;;5001208;28;20056;-81
2022/09/11 06:40:58;;;;;;;22.67;21.17;;;16.80;80.30;;;;;;5024731;28;20040;-81
2022/09/11 06:43:24;;;;;;;23.50;21.92;;;16.90;80.00;;;;;;5049300;28;20474;-81
2022/09/11 06:45:50;;;;;;;23.88;22.50;;;16.70;80.70;;;;;;5033283;28;20040;-81
2022/09/11 06:48:17;;;;;;;23.23;21.90;;;16.80;80.40;;;;;;5019846;28;20060;-82
2022/09/11 06:50:44;;;;;;;23.55;21.88;;;16.90;80.30;;;;;;5071471;28;20028;-81
2022/09/11 06:53:10;;;;;;;22.23;20.88;;;17.00;80.00;;;;;;5037268;28;20040;-81
2022/09/11 06:55:38;;;;;;;22.95;21.55;;;17.10;80.00;;;;;;5036712;28;20029;-81
2022/09/11 06:58:04;;;;;;;25.85;24.35;;;17.20;79.40;;;;;;5036614;28;20059;-81
2022/09/11 07:00:30;;;;;;;26.98;24.98;;;17.20;79.30;;;;;;5070813;28;20041;-81
2022/09/11 07:02:56;;;;;;;31.23;29.27;;;17.50;78.60;;;;;;5071636;28;20020;-82
2022/09/11 07:05:23;;;;;;;35.00;33.10;;;17.70;77.80;;;;;;5020357;28;20049;-81
2022/09/11 07:07:51;;;;;;;32.15;30.10;;;17.90;77.00;;;;;;5037007;28;20044;-82
2022/09/11 07:10:17;;;;;;;34.60;32.65;;;17.90;76.60;;;;;;5052990;28;20047;-82
2022/09/11 07:12:43;;;;;;;40.90;38.70;;;17.90;76.30;;;;;;5020027;28;20037;-82
2022/09/11 07:15:09;;;;;;;48.30;45.72;;;18.00;76.70;;;;;;5018960;28;20040;-81
2022/09/11 07:17:36;;;;;;;47.13;44.72;;;18.20;76.20;;;;;;5036696;28;20036;-82
2022/09/11 07:20:07;;;;;;;46.25;43.60;;;18.40;75.30;;;;;;5071237;28;20354;-82
2022/09/11 07:22:35;;;;;;;;;;;18.70;75.20;;;;;;5021177;28;20052;-82
2022/09/11 07:25:02;;;;;;;32.90;31.20;;;18.80;73.60;;;;;;5053022;28;19923;-82
2022/09/11 07:27:28;;;;;;;36.10;34.10;;;18.80;73.70;;;;;;5036259;28;20029;-82
2022/09/11 07:29:54;;;;;;;27.83;26.23;;;18.80;73.60;;;;;;5052813;28;20031;-82
2022/09/11 07:32:21;;;;;;;33.47;31.70;;;19.00;72.70;;;;;;5052417;28;20033;-82
2022/09/11 07:34:47;;;;;;;32.08;30.23;;;19.00;73.70;;;;;;5053018;28;20028;-83
2022/09/11 07:37:13;;;;;;;31.73;30.02;;;19.30;74.40;;;;;;5070831;28;20540;-82
2022/09/11 07:39:39;;;;;;;31.30;29.38;;;19.60;71.80;;;;;;5052322;28;20040;-83
2022/09/11 07:42:08;;;;;;;28.27;26.83;;;19.80;71.10;;;;;;5052696;28;20036;-82
2022/09/11 07:44:35;;;;;;;35.47;33.50;;;20.00;70.40;;;;;;5052740;28;20043;-83
2022/09/11 07:47:01;;;;;;;32.60;30.75;;;20.10;69.20;;;;;;5069921;28;20409;-83
2022/09/11 07:49:27;;;;;;;37.80;35.70;;;20.10;69.40;;;;;;5036039;28;20052;-83
2022/09/11 07:51:53;;;;;;;36.95;34.80;;;20.20;68.80;;;;;;5035587;28;20033;-83
2022/09/11 07:54:20;;;;;;;34.15;32.15;;;20.20;69.20;;;;;;5035739;28;20029;-83
2022/09/11 07:56:47;;;;;;;33.88;32.17;;;20.40;68.70;;;;;;5019525;28;20059;-83
2022/09/11 07:59:13;;;;;;;38.90;36.90;;;20.40;68.00;;;;;;5036451;28;20048;-83
2022/09/11 08:01:41;;;;;;;39.40;37.17;;;20.40;68.30;;;;;;5051882;28;20033;-83
2022/09/11 08:04:09;;;;;;;39.50;37.22;;;20.40;68.10;;;;;;5053041;28;20036;-83
2022/09/11 08:06:35;;;;;;;36.53;34.63;;;20.50;67.70;;;;;;5035771;28;20036;-83
2022/09/11 08:09:04;;;;;;;33.22;31.35;;;20.60;68.00;;;;;;5035524;28;20399;-84
2022/09/11 08:11:30;;;;;;;38.25;36.20;;;20.70;67.10;;;;;;5040177;28;20036;-83
2022/09/11 08:13:56;;;;;;;33.97;32.17;;;20.60;67.80;;;;;;5040735;28;20025;-83
2022/09/11 08:16:24;;;;;;;36.35;34.35;;;20.70;67.20;;;;;;5039405;28;20029;-83
2022/09/11 08:18:50;;;;;;;40.25;38.22;;;20.80;66.70;;;;;;5056348;28;20028;-84
2022/09/11 08:21:17;;;;;;;46.80;44.15;;;21.00;67.70;;;;;;5073885;28;20032;-84
2022/09/11 08:23:43;;;;;;;45.08;42.67;;;21.30;65.30;;;;;;5056069;28;20492;-84
2022/09/11 08:26:14;;;;;;;36.28;34.20;;;21.50;64.60;;;;;;5056518;28;20044;-84
2022/09/11 08:28:41;;;;;;;30.65;28.95;;;21.60;63.50;;;;;;5039985;28;20037;-83
2022/09/11 08:31:08;;;;;;;33.50;31.75;;;21.60;63.20;;;;;;5055734;28;20036;-84
2022/09/11 08:33:34;;;;;;;29.45;27.80;;;21.60;63.60;;;;;;5056157;28;20039;-84
2022/09/11 08:36:03;;;;;;;24.08;22.83;;;21.80;62.50;;;;;;5039428;28;20055;-84
2022/09/11 08:38:29;;;;;;;29.23;27.73;;;21.70;62.60;;;;;;5039190;28;20466;-83
2022/09/11 08:40:57;;;;;;;37.92;35.97;;;21.70;62.50;;;;;;5055936;28;20076;-84
2022/09/11 08:43:32;;;;;;;35.63;33.80;;;21.80;63.20;;;;;;5056068;28;20385;-83
2022/09/11 08:46:03;;;;;;;28.55;26.95;;;22.10;62.10;;;;;;5039500;28;20035;-83
2022/09/11 08:49:09;;;;;;;33.58;31.67;;;22.30;60.60;;;;;;5022692;28;20048;-84
2022/09/11 08:51:35;;;;;;;35.25;33.38;;;22.30;59.90;;;;;;5057290;28;20048;-84
2022/09/11 08:54:02;;;;;;;33.00;31.05;;;22.20;61.20;;;;;;5039291;28;20031;-83
2022/09/11 08:56:29;;;;;;;27.60;26.02;;;22.40;60.90;;;;;;5039261;28;20023;-84
2022/09/11 08:59:19;;;;;;;25.50;24.02;;;22.70;59.40;;;;;;5055790;28;20037;-84
2022/09/11 09:02:07;;;;;;;25.15;23.65;;;22.70;59.10;;;;;;5038096;28;20393;-84
2022/09/11 09:04:47;;;;;;;22.52;21.13;;;22.70;58.80;;;;;;5058529;28;20486;-83
2022/09/11 09:07:21;;;;;;;22.13;20.73;;;22.80;58.60;;;;;;5038541;28;20041;-84
2022/09/11 09:10:06;;;;;;;25.30;23.48;;;22.90;58.40;;;;;;5055987;28;20028;-84
2022/09/11 09:12:44;;;;;;;28.17;26.33;;;23.00;57.80;;;;;;5073541;28;20033;-84
2022/09/11 09:15:34;;;;;;;33.30;31.10;;;23.20;57.90;;;;;;5056350;28;20044;-84
2022/09/11 09:18:11;;;;;;;35.35;33.45;;;23.10;58.20;;;;;;5039130;28;20799;-83
2022/09/11 09:20:44;;;;;;;29.60;28.02;;;23.40;57.80;;;;;;5038901;28;20035;-84
2022/09/11 09:23:12;;;;;;;24.42;22.88;;;23.50;56.70;;;;;;5039807;28;20035;-84
2022/09/11 09:25:39;;;;;;;24.40;23.08;;;23.60;56.10;;;;;;5038446;28;20063;-84
2022/09/11 09:28:05;;;;;;;23.42;22.23;;;23.60;56.50;;;;;;5055377;28;20029;-84
2022/09/11 09:30:39;;;;;;;23.23;21.77;;;23.60;56.30;;;;;;5072647;28;20021;-84
2022/09/11 09:33:29;;;;;;;23.08;21.75;;;23.60;55.80;;;;;;5037908;28;20661;-84
2022/09/11 09:35:56;;;;;;;25.27;23.47;;;23.60;56.30;;;;;;5055177;28;20028;-84
2022/09/11 09:38:26;;;;;;;23.90;22.40;;;23.80;55.70;;;;;;5037939;28;20040;-84
2022/09/11 09:41:07;;;;;;;22.50;21.20;;;23.90;55.00;;;;;;5054867;28;20020;-84
2022/09/11 09:44:03;;;;;;;23.92;22.63;;;24.00;54.90;;;;;;5054781;28;20568;-85
2022/09/11 09:46:47;;;;;;;22.23;20.95;;;24.20;54.30;;;;;;5030589;28;20052;-84
2022/09/11 09:49:22;;;;;;;21.52;20.30;;;24.30;54.20;;;;;;5021076;28;20044;-84
2022/09/11 09:51:48;;;;;;;23.70;22.00;;;24.30;54.00;;;;;;5039297;28;20024;-85
2022/09/11 09:54:15;;;;;;;21.88;20.58;;;24.20;54.10;;;;;;5038215;28;20024;-84
2022/09/11 09:56:42;;;;;;;24.10;22.75;;;24.20;54.10;;;;;;5054720;28;20032;-85
2022/09/11 09:59:25;;;;;;;23.95;22.55;;;24.30;54.00;;;;;;5021292;28;20039;-84
2022/09/11 10:01:53;;;;;;;28.00;26.50;;;24.40;53.90;;;;;;5038933;28;20493;-84
2022/09/11 10:04:24;;;;;;;25.88;24.35;;;24.50;53.40;;;;;;5054476;28;20028;-84
2022/09/11 10:06:51;;;;;;;26.55;25.00;;;24.50;53.20;;;;;;5038309;28;20036;-84
2022/09/11 10:09:26;;;;;;;26.58;25.08;;;24.50;53.60;;;;;;5071928;28;20041;-84
2022/09/11 10:12:01;;;;;;;27.52;25.90;;;24.70;52.90;;;;;;5038677;28;20028;-84
2022/09/11 10:14:52;;;;;;;25.63;24.02;;;24.90;52.60;;;;;;5038920;28;20028;-84
2022/09/11 10:17:22;;;;;;;27.50;25.50;;;24.90;52.40;;;;;;5056545;28;20029;-83
2022/09/11 10:19:49;;;;;;;21.10;19.90;;;24.90;52.50;;;;;;5036878;28;20389;-85
2022/09/11 10:22:29;;;;;;;23.05;21.77;;;24.80;52.20;;;;;;5038113;28;20043;-85
2022/09/11 10:25:25;;;;;;;31.20;28.88;;;24.80;52.70;;;;;;5038005;28;20028;-85
2022/09/11 10:27:55;;;;;;;26.42;24.67;;;24.90;52.70;;;;;;5030176;28;20044;-85
2022/09/11 10:30:27;;;;;;;30.02;27.75;;;24.90;51.90;;;;;;5071544;28;20567;-85
2022/09/11 10:32:54;;;;;;;22.08;20.60;;;25.00;52.40;;;;;;5071635;28;20028;-85
2022/09/11 10:35:25;;;;;;;20.25;19.17;;;25.20;51.60;;;;;;5054206;28;20031;-84
2022/09/11 10:38:17;;;;;;;21.35;19.98;;;25.10;51.20;;;;;;5054192;28;20032;-85
2022/09/11 10:41:13;;;;;;;22.70;20.90;;;24.90;51.40;;;;;;5067657;28;20493;-85
2022/09/11 10:43:46;;;;;;;21.52;20.23;;;25.00;51.50;;;;;;5026777;28;20053;-85
2022/09/11 10:46:33;;;;;;;22.85;21.45;;;25.20;51.80;;;;;;5009030;28;20046;-85
2022/09/11 10:49:05;;;;;;;21.10;20.00;;;25.30;51.30;;;;;;4989129;28;20050;-85
2022/09/11 10:51:33;;;;;;;21.65;20.27;;;25.30;51.60;;;;;;5005698;28;20503;-85
2022/09/11 10:54:22;;;;;;;22.15;20.88;;;25.40;51.50;;;;;;4989859;28;20122;-84
2022/09/11 10:57:04;;;;;;;24.42;23.02;;;25.70;50.30;;;;;;5006181;28;20391;-85
2022/09/11 10:59:58;;;;;;;22.90;21.80;;;25.90;50.00;;;;;;5006121;28;20030;-85
2022/09/11 11:02:37;;;;;;;20.90;19.80;;;26.00;49.20;;;;;;4988935;28;20518;-85
2022/09/11 11:05:14;;;;;;;23.23;21.90;;;26.00;49.80;;;;;;5005771;28;20026;-85
2022/09/11 11:07:52;;;;;;;21.23;20.10;;;25.90;48.80;;;;;;5021519;28;20049;-85
2022/09/11 11:10:39;;;;;;;22.73;21.52;;;25.90;48.70;;;;;;5021023;28;20467;-85
2022/09/11 11:13:13;;;;;;;23.02;21.52;;;26.00;48.70;;;;;;5005176;28;20038;-85
2022/09/11 11:16:03;;;;;;;21.80;20.60;;;26.00;48.70;;;;;;5005307;28;20578;-85
2022/09/11 11:18:35;;;;;;;23.37;22.07;;;26.00;48.40;;;;;;5006076;28;20022;-85
2022/09/11 11:21:22;;;;;;;23.05;21.60;;;26.00;48.30;;;;;;5026981;28;20044;-85
2022/09/11 11:24:04;;;;;;;24.67;23.38;;;26.10;48.20;;;;;;5051220;28;20029;-85
2022/09/11 11:26:30;;;;;;;24.67;23.25;;;26.10;47.50;;;;;;5015741;28;20417;-85
2022/09/11 11:29:17;;;;;;;23.95;22.65;;;25.80;48.50;;;;;;5049488;28;20043;-85
2022/09/11 11:32:07;;;;;;;22.75;21.58;;;25.80;49.10;;;;;;5052298;28;20051;-85
2022/09/11 11:34:36;;;;;;;24.70;23.38;;;25.90;48.90;;;;;;5053110;28;20032;-85
2022/09/11 11:37:06;;;;;;;23.75;22.42;;;26.00;48.40;;;;;;5052823;28;20027;-84
2022/09/11 11:39:37;;;;;;;22.33;21.10;;;26.00;48.30;;;;;;5052911;28;20032;-85
2022/09/11 11:42:13;;;;;;;22.13;20.92;;;25.90;48.20;;;;;;5033326;28;20029;-85
2022/09/11 11:44:43;;;;;;;22.88;21.58;;;26.00;48.50;;;;;;5043133;28;20473;-85
2022/09/11 11:47:09;;;;;;;23.75;22.52;;;26.00;48.80;;;;;;5052177;28;20048;-85
2022/09/11 11:49:48;;;;;;;23.25;21.98;;;26.10;48.20;;;;;;5036297;28;20494;-85
2022/09/11 11:52:35;;;;;;;23.67;22.45;;;26.20;48.20;;;;;;5070685;28;20036;-85
2022/09/11 11:55:19;;;;;;;24.10;22.75;;;26.40;48.70;;;;;;5070870;28;20036;-85
2022/09/11 11:58:05;;;;;;;25.85;24.55;;;26.60;48.00;;;;;;5038558;28;20032;-85
2022/09/11 12:00:36;;;;;;;25.50;24.00;;;26.60;47.70;;;;;;5036714;28;20027;-85
2022/09/11 12:03:06;;;;;;;24.35;23.05;;;26.70;47.90;;;;;;5037353;28;20143;-85
2022/09/11 12:05:33;;;;;;;23.85;22.27;;;26.80;47.70;;;;;;5052786;28;20036;-85
2022/09/11 12:08:00;;;;;;;24.35;23.05;;;26.80;46.40;;;;;;5036793;28;20028;-84
2022/09/11 12:10:29;;;;;;;26.10;24.48;;;26.70;46.80;;;;;;5070248;28;20044;-85
2022/09/11 12:12:58;;;;;;;23.80;22.60;;;26.50;47.50;;;;;;5019353;28;20028;-85
2022/09/11 12:15:28;;;;;;;23.70;22.50;;;26.60;46.80;;;;;;5018478;28;20029;-85
2022/09/11 12:17:59;;;;;;;25.83;24.33;;;26.50;47.40;;;;;;5020286;28;20040;-85
2022/09/11 12:20:44;;;;;;;25.88;24.58;;;26.70;47.70;;;;;;5019292;28;20048;-85
2022/09/11 12:23:48;;;;;;;26.63;25.33;;;26.80;46.60;;;;;;5052609;28;20465;-85
2022/09/11 12:26:22;;;;;;;25.92;24.63;;;26.90;46.80;;;;;;4991691;28;20052;-85
2022/09/11 12:28:49;;;;;;;24.98;23.65;;;27.00;46.50;;;;;;5007795;28;20459;-85
2022/09/11 12:31:16;;;;;;;25.30;23.85;;;26.80;47.10;;;;;;5007926;28;20042;-85
2022/09/11 12:33:46;;;;;;;24.85;23.55;;;26.90;46.60;;;;;;5007922;28;20557;-85
2022/09/11 12:36:15;;;;;;;23.75;22.55;;;26.60;46.70;;;;;;5008166;28;20042;-85
2022/09/11 12:39:03;;;;;;;21.38;20.30;;;26.40;46.80;;;;;;5008261;28;20082;-84
2022/09/11 12:41:33;;;;;;;24.02;22.77;;;26.40;47.10;;;;;;5019675;28;20030;-85
2022/09/11 12:43:59;;;;;;;25.33;23.92;;;26.50;46.90;;;;;;5025793;28;20033;-83
2022/09/11 12:46:26;;;;;;;26.05;24.65;;;26.70;47.20;;;;;;5026860;28;20117;-85
2022/09/11 12:48:57;;;;;;;25.35;23.95;;;26.90;46.30;;;;;;5008048;28;20046;-85